createdAt,value
2022-07-30T00:00:00.161Z,985.8
2022-07-30T00:05:00.153Z,985.8
2022-07-30T00:10:00.168Z,985.6
2022-07-30T00:15:00.158Z,986.4
2022-07-30T00:20:00.194Z,986.2
2022-07-30T00:25:00.150Z,986
2022-07-30T00:30:00.199Z,985.4
2022-07-30T00:35:00.163Z,985.4
2022-07-30T00:40:00.179Z,984.9
2022-07-30T00:45:00.162Z,984.9
2022-07-30T00:50:00.152Z,984.7
2022-07-30T00:55:00.160Z,984.3
2022-07-30T01:00:00.190Z,984.3
2022-07-30T01:05:00.208Z,984
2022-07-30T01:10:00.246Z,984
2022-07-30T01:15:00.284Z,984
2022-07-30T01:20:00.281Z,984
2022-07-30T01:25:00.221Z,984
2022-07-30T01:30:00.217Z,983.6
2022-07-30T01:35:00.166Z,983.6
2022-07-30T01:40:00.168Z,983.6
2022-07-30T01:45:00.158Z,983.6
2022-07-30T01:50:00.203Z,983.8
2022-07-30T01:55:00.151Z,984
2022-07-30T02:00:00.169Z,983.8
2022-07-30T02:05:00.604Z,983.8
2022-07-30T02:10:00.583Z,983.6
2022-07-30T02:15:00.152Z,983.6
2022-07-30T02:20:00.226Z,983.2
2022-07-30T02:25:00.155Z,983.2
2022-07-30T02:30:00.195Z,983.2
2022-07-30T02:35:00.151Z,983.6
2022-07-30T02:40:00.176Z,983.8
2022-07-30T02:45:00.171Z,983.8
2022-07-30T02:50:00.206Z,983.6
2022-07-30T02:55:00.163Z,983.6
2022-07-30T03:00:00.157Z,983.6
2022-07-30T03:05:00.159Z,983.4
2022-07-30T03:10:00.150Z,983.6
2022-07-30T03:15:00.162Z,983.6
2022-07-30T03:20:00.203Z,983.6
2022-07-30T03:25:00.160Z,983.6
2022-07-30T03:30:00.172Z,983.6
2022-07-30T03:35:06.182Z,983.4
2022-07-30T03:40:00.175Z,983.2
2022-07-30T03:45:00.152Z,983.4
2022-07-30T03:50:00.178Z,983.6
2022-07-30T03:55:00.152Z,983.6
2022-07-30T04:00:00.266Z,983.8
2022-07-30T04:05:00.162Z,984.3
2022-07-30T04:10:00.164Z,984.5
2022-07-30T04:15:00.154Z,984.7
2022-07-30T04:20:00.165Z,984.9
2022-07-30T04:25:00.163Z,985.1
2022-07-30T04:30:00.177Z,985.1
2022-07-30T04:35:00.161Z,985.1
2022-07-30T04:40:00.205Z,985.4
2022-07-30T04:45:00.155Z,985.4
2022-07-30T04:50:00.167Z,985.8
2022-07-30T04:55:00.168Z,985.8
2022-07-30T05:00:00.189Z,985.8
2022-07-30T05:05:00.253Z,986.2
2022-07-30T05:10:00.214Z,986.4
2022-07-30T05:15:00.162Z,986.4
2022-07-30T05:20:00.195Z,986.4
2022-07-30T05:25:00.160Z,985.8
2022-07-30T05:30:00.170Z,986
2022-07-30T05:35:00.152Z,984.9
2022-07-30T05:40:02.852Z,985.4
2022-07-30T05:45:00.163Z,984.5
2022-07-30T05:50:04.334Z,983.8
2022-07-30T05:55:00.152Z,983.6
2022-07-30T06:00:00.196Z,983.4
2022-07-30T06:05:00.272Z,984
2022-07-30T06:10:00.300Z,983.6
2022-07-30T06:15:00.159Z,983.8
2022-07-30T06:20:00.197Z,981.4
2022-07-30T06:25:00.156Z,981
2022-07-30T06:30:00.186Z,981
2022-07-30T06:35:04.487Z,980.6
2022-07-30T06:40:00.160Z,980.1
2022-07-30T06:45:00.158Z,978.2
2022-07-30T06:50:00.176Z,978.4
2022-07-30T06:55:00.156Z,977.1
2022-07-30T07:00:00.210Z,977.1
2022-07-30T07:05:00.154Z,975.4
2022-07-30T07:10:00.157Z,975.8
2022-07-30T07:15:00.150Z,974
2022-07-30T07:20:02.510Z,974.9
2022-07-30T07:25:00.159Z,974.5
2022-07-30T07:30:04.898Z,973.6
2022-07-30T07:35:00.170Z,971.4
2022-07-30T07:40:00.168Z,970.8
2022-07-30T07:45:00.549Z,969.7
2022-07-30T07:50:00.191Z,970.1
2022-07-30T07:55:00.164Z,968.4
2022-07-30T08:00:00.193Z,966.4
2022-07-30T08:05:00.156Z,962.3
2022-07-30T08:10:00.162Z,964.7
2022-07-30T08:15:00.176Z,963.8
2022-07-30T08:20:00.169Z,960.1
2022-07-30T08:25:00.160Z,959
2022-07-30T08:30:00.262Z,958
2022-07-30T08:35:00.169Z,957.1
2022-07-30T08:40:00.192Z,955.6
2022-07-30T08:45:00.159Z,954.9
2022-07-30T08:50:00.215Z,957.5
2022-07-30T08:55:00.169Z,955.8
2022-07-30T09:00:01.727Z,957.1
2022-07-30T09:05:00.166Z,954.5
2022-07-30T09:10:00.169Z,953.6
2022-07-30T09:15:00.157Z,954
2022-07-30T09:20:00.166Z,955.1
2022-07-30T09:25:00.161Z,954.5
2022-07-30T09:30:00.184Z,954.7
2022-07-30T09:35:00.160Z,955.6
2022-07-30T09:40:00.173Z,955.1
2022-07-30T09:45:00.153Z,954.5
2022-07-30T09:50:06.927Z,951.9
2022-07-30T09:55:00.172Z,952.7
2022-07-30T10:00:00.304Z,952.3
2022-07-30T10:05:00.168Z,950.4
2022-07-30T10:10:00.153Z,950.6
2022-07-30T10:15:00.157Z,950.4
2022-07-30T10:20:03.111Z,952.3
2022-07-30T10:25:00.168Z,950.6
2022-07-30T10:30:03.603Z,946.9
2022-07-30T10:35:00.463Z,950.1
2022-07-30T10:40:00.187Z,949.7
2022-07-30T10:45:00.158Z,951.2
2022-07-30T10:50:00.154Z,948
2022-07-30T10:55:00.158Z,950.8
2022-07-30T11:00:00.805Z,948
2022-07-30T11:05:00.157Z,947.1
2022-07-30T11:10:05.553Z,946.4
2022-07-30T11:15:06.631Z,947.7
2022-07-30T11:20:01.547Z,947.1
2022-07-30T11:25:00.351Z,945.8
2022-07-30T11:30:00.186Z,946.7
2022-07-30T11:35:00.158Z,946.7
2022-07-30T11:40:00.197Z,945.4
2022-07-30T11:45:03.932Z,945.8
2022-07-30T11:50:00.157Z,945.6
2022-07-30T11:55:00.152Z,946.7
2022-07-30T12:00:00.175Z,944.9
2022-07-30T12:05:00.165Z,947.5
2022-07-30T12:10:00.157Z,947.3
2022-07-30T12:30:00.175Z,947.5
2022-07-30T12:35:00.170Z,945.4
2022-07-30T12:40:00.188Z,946
2022-07-30T12:45:00.174Z,947.5
2022-07-30T12:50:00.833Z,947.3
2022-07-30T12:55:00.162Z,946.2
2022-07-30T13:00:00.236Z,946.7
2022-07-30T13:05:11.079Z,947.1
2022-07-30T13:10:00.667Z,948
2022-07-30T13:15:00.272Z,945.1
2022-07-30T13:20:00.184Z,947.1
2022-07-30T13:25:00.175Z,946.7
2022-07-30T13:30:00.202Z,945.1
2022-07-30T13:35:01.875Z,944.9
2022-07-30T13:40:00.183Z,944.5
2022-07-30T13:45:00.238Z,947.3
2022-07-30T13:50:00.195Z,949
2022-07-30T13:55:00.199Z,947.1
2022-07-30T14:00:00.187Z,946.2
2022-07-30T14:05:00.183Z,945.4
2022-07-30T14:10:00.187Z,945.6
2022-07-30T14:15:00.187Z,944.3
2022-07-30T14:20:00.205Z,944.5
2022-07-30T14:25:00.192Z,944.9
2022-07-30T14:30:00.394Z,946.7
2022-07-30T14:35:00.218Z,944.5
2022-07-30T14:40:00.189Z,944.7
2022-07-30T14:50:00.301Z,946.7
2022-07-30T14:55:00.166Z,944
2022-07-30T15:00:00.425Z,943.6
2022-07-30T15:05:00.161Z,943.4
2022-07-30T15:10:00.338Z,943.8
2022-07-30T15:15:00.258Z,943.8
2022-07-30T15:20:00.194Z,941.9
2022-07-30T15:25:00.178Z,943
2022-07-30T15:30:00.245Z,940.8
2022-07-30T15:35:00.184Z,942.3
2022-07-30T15:40:00.163Z,943.4
2022-07-30T15:45:17.663Z,943.8
2022-07-30T15:50:00.183Z,944.3
2022-07-30T15:55:00.168Z,944.5
2022-07-30T16:00:00.207Z,945.4
2022-07-30T16:05:00.171Z,944.5
2022-07-30T16:10:00.173Z,944.5
2022-07-30T16:15:00.191Z,945.8
2022-07-30T16:20:00.218Z,946.2
2022-07-30T16:25:00.172Z,945.4
2022-07-30T16:30:00.187Z,945.6
2022-07-30T16:35:00.171Z,944.9
2022-07-30T16:40:00.242Z,944
2022-07-30T16:45:00.222Z,945.8
2022-07-30T16:50:00.298Z,946
2022-07-30T16:55:00.301Z,943.2
2022-07-30T17:00:00.304Z,939.5
2022-07-30T17:05:00.225Z,940.6
2022-07-30T17:10:00.198Z,942.7
2022-07-30T17:15:00.167Z,944.5
2022-07-30T17:20:00.236Z,945.4
2022-07-30T17:25:00.170Z,946.7
2022-07-30T17:30:00.163Z,947.5
2022-07-30T17:35:00.166Z,947.7
2022-07-30T17:40:19.627Z,948.4
2022-07-30T17:45:00.170Z,947.7
2022-07-30T17:50:00.232Z,949.3
2022-07-30T17:55:00.164Z,947.1
2022-07-30T18:00:00.179Z,949.7
2022-07-30T18:05:00.181Z,951.7
2022-07-30T18:10:00.181Z,953.2
2022-07-30T18:15:00.169Z,953.6
2022-07-30T18:20:00.216Z,952.5
2022-07-30T18:25:00.273Z,955.4
2022-07-30T18:30:00.184Z,956.2
2022-07-30T18:35:00.179Z,955.8
2022-07-30T18:40:00.168Z,956.2
2022-07-30T18:45:00.173Z,956.2
2022-07-30T18:50:00.258Z,957.1
2022-07-30T18:55:00.191Z,957.7
2022-07-30T19:00:00.194Z,958
2022-07-30T19:05:00.195Z,958.4
2022-07-30T19:10:00.204Z,959.3
2022-07-30T19:15:00.167Z,959.7
2022-07-30T19:20:00.170Z,960.1
2022-07-30T19:25:00.172Z,960.6
2022-07-30T19:30:00.194Z,961.9
2022-07-30T19:35:00.159Z,962.7
2022-07-30T19:40:06.089Z,963.2
2022-07-30T19:45:01.324Z,963.6
2022-07-30T19:50:00.223Z,963.6
2022-07-30T19:55:00.181Z,964.5
2022-07-30T20:00:04.220Z,964.9
2022-07-30T20:05:00.173Z,965.1
2022-07-30T20:10:00.194Z,965.8
2022-07-30T20:15:00.196Z,966
2022-07-30T20:20:00.188Z,966.7
2022-07-30T20:25:00.182Z,967.3
2022-07-30T20:30:00.176Z,967.5
2022-07-30T20:35:00.178Z,968.2
2022-07-30T20:40:00.169Z,968.8
2022-07-30T20:45:00.178Z,969.3
2022-07-30T20:50:00.176Z,969.7
2022-07-30T20:55:00.189Z,969.3
2022-07-30T21:00:00.184Z,969.7
2022-07-30T21:05:00.205Z,970.6
2022-07-30T21:10:00.175Z,970.6
2022-07-30T21:15:00.163Z,970.1
2022-07-30T21:20:00.168Z,970.1
2022-07-30T21:25:00.178Z,970.1
2022-07-30T21:30:00.173Z,970.1
2022-07-30T21:35:00.168Z,970.8
2022-07-30T21:40:00.200Z,970.8
2022-07-30T21:45:00.167Z,970.8
2022-07-30T21:50:00.202Z,970.6
2022-07-30T21:55:04.237Z,970.4
2022-07-30T22:00:00.173Z,970.6
2022-07-30T22:05:00.169Z,970.6
2022-07-30T22:10:00.196Z,971
2022-07-30T22:15:00.958Z,971
2022-07-30T22:20:00.240Z,971
2022-07-30T22:25:00.474Z,971
2022-07-30T22:30:00.172Z,970.8
2022-07-30T22:35:00.164Z,971
2022-07-30T22:40:00.167Z,971
2022-07-30T22:45:00.178Z,971.4
2022-07-30T22:50:00.287Z,971.4
2022-07-30T22:55:08.497Z,971.4
2022-07-30T23:00:01.081Z,971.9
2022-07-30T23:05:00.159Z,972.1
2022-07-30T23:10:00.176Z,972.1
2022-07-30T23:15:00.161Z,972.3
2022-07-30T23:20:00.185Z,972.3
2022-07-30T23:25:00.160Z,972.7
2022-07-30T23:30:00.181Z,973.4
2022-07-30T23:35:00.192Z,973.2
2022-07-30T23:40:00.177Z,973.2
2022-07-30T23:45:00.185Z,974
2022-07-30T23:50:00.170Z,974.3
2022-07-30T23:55:00.166Z,974.3
